sensor_id;sensor_type;location;lat;lon;timestamp;temperature;humidity
72865;DHT22;61000;48.120;11.548;2023-04-10T00:02:23;3.90;99.90
72865;DHT22;61000;48.120;11.548;2023-04-10T00:04:50;3.90;99.90
72865;DHT22;61000;48.120;11.548;2023-04-10T00:07:18;3.90;99.90
72865;DHT22;61000;48.120;11.548;2023-04-10T00:09:46;3.80;99.90
72865;DHT22;61000;48.120;11.548;2023-04-10T00:12:13;3.80;99.90
72865;DHT22;61000;48.120;11.548;2023-04-10T00:14:40;3.80;99.90
72865;DHT22;61000;48.120;11.548;2023-04-10T00:17:07;3.80;99.90
72865;DHT22;61000;48.120;11.548;2023-04-10T00:19:34;3.80;99.90
72865;DHT22;61000;48.120;11.548;2023-04-10T00:22:01;3.70;99.90
72865;DHT22;61000;48.120;11.548;2023-04-10T00:24:29;3.70;99.90
72865;DHT22;61000;48.120;11.548;2023-04-10T00:26:56;3.70;99.90
72865;DHT22;61000;48.120;11.548;2023-04-10T00:29:23;3.60;99.90
72865;DHT22;61000;48.120;11.548;2023-04-10T00:31:50;3.60;99.90
72865;DHT22;61000;48.120;11.548;2023-04-10T00:34:17;3.60;99.90
72865;DHT22;61000;48.120;11.548;2023-04-10T00:36:44;3.60;99.90
72865;DHT22;61000;48.120;11.548;2023-04-10T00:39:12;3.60;99.90
72865;DHT22;61000;48.120;11.548;2023-04-10T00:41:41;3.60;99.90
72865;DHT22;61000;48.120;11.548;2023-04-10T00:44:08;3.60;99.90
72865;DHT22;61000;48.120;11.548;2023-04-10T00:46:36;3.60;99.90
72865;DHT22;61000;48.120;11.548;2023-04-10T00:49:04;3.60;99.90
72865;DHT22;61000;48.120;11.548;2023-04-10T00:51:31;3.60;99.90
72865;DHT22;61000;48.120;11.548;2023-04-10T00:53:59;3.60;99.90
72865;DHT22;61000;48.120;11.548;2023-04-10T00:56:27;3.60;99.90
72865;DHT22;61000;48.120;11.548;2023-04-10T00:58:55;3.60;99.90
72865;DHT22;61000;48.120;11.548;2023-04-10T01:01:22;3.60;99.90
72865;DHT22;61000;48.120;11.548;2023-04-10T01:03:49;3.60;99.90
72865;DHT22;61000;48.120;11.548;2023-04-10T01:06:22;3.60;99.90
72865;DHT22;61000;48.120;11.548;2023-04-10T01:08:54;3.50;99.90
72865;DHT22;61000;48.120;11.548;2023-04-10T01:11:32;3.50;99.90
72865;DHT22;61000;48.120;11.548;2023-04-10T01:14:11;3.40;99.90
72865;DHT22;61000;48.120;11.548;2023-04-10T01:16:46;3.50;99.90
72865;DHT22;61000;48.120;11.548;2023-04-10T01:19:25;3.50;99.90
72865;DHT22;61000;48.120;11.548;2023-04-10T01:21:54;3.50;99.90
72865;DHT22;61000;48.120;11.548;2023-04-10T01:24:35;3.50;99.90
72865;DHT22;61000;48.120;11.548;2023-04-10T01:27:11;3.50;99.90
72865;DHT22;61000;48.120;11.548;2023-04-10T01:29:46;3.50;99.90
72865;DHT22;61000;48.120;11.548;2023-04-10T01:32:16;3.40;99.90
72865;DHT22;61000;48.120;11.548;2023-04-10T01:34:45;3.30;99.90
72865;DHT22;61000;48.120;11.548;2023-04-10T01:37:16;3.70;99.90
72865;DHT22;61000;48.120;11.548;2023-04-10T01:39:48;3.20;99.90
72865;DHT22;61000;48.120;11.548;2023-04-10T01:42:17;3.20;99.90
72865;DHT22;61000;48.120;11.548;2023-04-10T01:44:47;3.20;99.90
72865;DHT22;61000;48.120;11.548;2023-04-10T01:47:16;3.20;99.90
72865;DHT22;61000;48.120;11.548;2023-04-10T01:49:45;3.20;99.90
72865;DHT22;61000;48.120;11.548;2023-04-10T01:52:14;3.10;99.90
72865;DHT22;61000;48.120;11.548;2023-04-10T01:54:46;3.10;99.90
72865;DHT22;61000;48.120;11.548;2023-04-10T01:57:19;3.10;99.90
72865;DHT22;61000;48.120;11.548;2023-04-10T01:59:58;3.00;99.90
72865;DHT22;61000;48.120;11.548;2023-04-10T02:02:29;3.00;99.90
72865;DHT22;61000;48.120;11.548;2023-04-10T02:04:56;3.00;99.90
72865;DHT22;61000;48.120;11.548;2023-04-10T02:07:27;3.00;99.90
72865;DHT22;61000;48.120;11.548;2023-04-10T02:09:58;3.00;99.90
72865;DHT22;61000;48.120;11.548;2023-04-10T02:12:30;3.00;99.90
72865;DHT22;61000;48.120;11.548;2023-04-10T02:15:00;3.00;99.90
72865;DHT22;61000;48.120;11.548;2023-04-10T02:17:28;3.00;99.90
72865;DHT22;61000;48.120;11.548;2023-04-10T02:19:56;3.00;99.90
72865;DHT22;61000;48.120;11.548;2023-04-10T02:22:24;3.00;99.90
72865;DHT22;61000;48.120;11.548;2023-04-10T02:24:51;2.90;99.90
72865;DHT22;61000;48.120;11.548;2023-04-10T02:27:26;2.90;99.90
72865;DHT22;61000;48.120;11.548;2023-04-10T02:32:23;2.80;99.90
72865;DHT22;61000;48.120;11.548;2023-04-10T02:34:50;2.70;99.90
72865;DHT22;61000;48.120;11.548;2023-04-10T02:37:17;2.70;99.90
72865;DHT22;61000;48.120;11.548;2023-04-10T02:39:44;2.70;99.90
72865;DHT22;61000;48.120;11.548;2023-04-10T02:42:11;2.70;99.90
72865;DHT22;61000;48.120;11.548;2023-04-10T02:44:39;2.80;99.90
72865;DHT22;61000;48.120;11.548;2023-04-10T02:47:06;2.70;99.90
72865;DHT22;61000;48.120;11.548;2023-04-10T02:49:36;2.70;99.90
72865;DHT22;61000;48.120;11.548;2023-04-10T02:52:10;2.70;99.90
72865;DHT22;61000;48.120;11.548;2023-04-10T02:54:37;2.70;99.90
72865;DHT22;61000;48.120;11.548;2023-04-10T02:57:04;2.80;99.90
72865;DHT22;61000;48.120;11.548;2023-04-10T02:59:31;2.70;99.90
72865;DHT22;61000;48.120;11.548;2023-04-10T03:04:31;2.50;99.90
72865;DHT22;61000;48.120;11.548;2023-04-10T03:06:59;2.80;99.90
72865;DHT22;61000;48.120;11.548;2023-04-10T03:09:26;2.60;99.90
72865;DHT22;61000;48.120;11.548;2023-04-10T03:11:53;2.60;99.90
72865;DHT22;61000;48.120;11.548;2023-04-10T03:14:20;2.60;99.90
72865;DHT22;61000;48.120;11.548;2023-04-10T03:16:47;2.50;99.90
72865;DHT22;61000;48.120;11.548;2023-04-10T04:12:41;2.10;99.90
72865;DHT22;61000;48.120;11.548;2023-04-10T04:15:23;2.10;99.90
72865;DHT22;61000;48.120;11.548;2023-04-10T04:17:56;2.10;99.90
72865;DHT22;61000;48.120;11.548;2023-04-10T04:20:23;2.00;99.90
72865;DHT22;61000;48.120;11.548;2023-04-10T04:23:13;2.00;99.90
72865;DHT22;61000;48.120;11.548;2023-04-10T04:26:03;2.00;99.90
72865;DHT22;61000;48.120;11.548;2023-04-10T04:28:48;2.00;99.90
72865;DHT22;61000;48.120;11.548;2023-04-10T04:31:35;2.00;99.90
72865;DHT22;61000;48.120;11.548;2023-04-10T04:34:15;2.00;99.90
72865;DHT22;61000;48.120;11.548;2023-04-10T04:36:42;2.00;99.90
72865;DHT22;61000;48.120;11.548;2023-04-10T04:39:32;2.00;99.90
72865;DHT22;61000;48.120;11.548;2023-04-10T04:42:17;1.90;99.90
72865;DHT22;61000;48.120;11.548;2023-04-10T04:44:50;1.90;99.90
72865;DHT22;61000;48.120;11.548;2023-04-10T04:47:43;1.80;99.90
72865;DHT22;61000;48.120;11.548;2023-04-10T04:50:18;1.70;99.90
72865;DHT22;61000;48.120;11.548;2023-04-10T04:52:56;1.70;99.90
72865;DHT22;61000;48.120;11.548;2023-04-10T04:55:48;1.70;99.90
72865;DHT22;61000;48.120;11.548;2023-04-10T04:58:35;1.70;99.90
72865;DHT22;61000;48.120;11.548;2023-04-10T05:01:31;1.80;99.90
72865;DHT22;61000;48.120;11.548;2023-04-10T05:04:13;1.80;99.90
72865;DHT22;61000;48.120;11.548;2023-04-10T05:07:01;1.80;99.90
72865;DHT22;61000;48.120;11.548;2023-04-10T05:09:46;1.80;99.90
72865;DHT22;61000;48.120;11.548;2023-04-10T05:12:31;1.80;99.90
72865;DHT22;61000;48.120;11.548;2023-04-10T05:15:03;1.80;99.90
72865;DHT22;61000;48.120;11.548;2023-04-10T05:18:00;1.80;99.90
72865;DHT22;61000;48.120;11.548;2023-04-10T05:20:54;1.90;99.90
72865;DHT22;61000;48.120;11.548;2023-04-10T05:23:36;1.80;99.90
72865;DHT22;61000;48.120;11.548;2023-04-10T05:26:16;1.90;99.90
72865;DHT22;61000;48.120;11.548;2023-04-10T05:28:50;1.90;99.90
72865;DHT22;61000;48.120;11.548;2023-04-10T05:31:28;1.90;99.90
72865;DHT22;61000;48.120;11.548;2023-04-10T05:34:07;1.90;99.90
72865;DHT22;61000;48.120;11.548;2023-04-10T05:36:59;1.90;99.90
72865;DHT22;61000;48.120;11.548;2023-04-10T05:39:38;2.00;99.90
72865;DHT22;61000;48.120;11.548;2023-04-10T05:42:24;2.10;99.90
72865;DHT22;61000;48.120;11.548;2023-04-10T05:45:08;2.10;99.90
72865;DHT22;61000;48.120;11.548;2023-04-10T05:47:53;2.20;99.90
72865;DHT22;61000;48.120;11.548;2023-04-10T05:50:34;2.30;99.90
72865;DHT22;61000;48.120;11.548;2023-04-10T05:53:14;2.30;99.90
72865;DHT22;61000;48.120;11.548;2023-04-10T05:56:04;2.40;99.90
72865;DHT22;61000;48.120;11.548;2023-04-10T05:58:41;2.50;99.90
72865;DHT22;61000;48.120;11.548;2023-04-10T06:01:28;2.50;99.90
72865;DHT22;61000;48.120;11.548;2023-04-10T06:03:58;2.60;99.90
72865;DHT22;61000;48.120;11.548;2023-04-10T06:06:25;2.60;99.90
72865;DHT22;61000;48.120;11.548;2023-04-10T06:08:53;2.60;99.90
72865;DHT22;61000;48.120;11.548;2023-04-10T06:11:20;2.70;99.90
72865;DHT22;61000;48.120;11.548;2023-04-10T06:13:51;2.70;99.90
72865;DHT22;61000;48.120;11.548;2023-04-10T06:16:23;2.80;99.90
72865;DHT22;61000;48.120;11.548;2023-04-10T06:18:50;2.90;99.90
72865;DHT22;61000;48.120;11.548;2023-04-10T06:21:18;2.90;99.90
72865;DHT22;61000;48.120;11.548;2023-04-10T06:23:45;3.00;99.90
72865;DHT22;61000;48.120;11.548;2023-04-10T06:26:13;2.90;99.90
72865;DHT22;61000;48.120;11.548;2023-04-10T06:28:40;3.10;99.90
72865;DHT22;61000;48.120;11.548;2023-04-10T06:31:07;3.20;99.90
72865;DHT22;61000;48.120;11.548;2023-04-10T06:33:36;3.30;99.90
72865;DHT22;61000;48.120;11.548;2023-04-10T06:36:06;3.40;99.90
72865;DHT22;61000;48.120;11.548;2023-04-10T06:38:39;3.50;99.90
72865;DHT22;61000;48.120;11.548;2023-04-10T06:41:06;3.70;99.90
72865;DHT22;61000;48.120;11.548;2023-04-10T06:43:37;3.80;99.90
72865;DHT22;61000;48.120;11.548;2023-04-10T06:46:05;3.80;99.90
72865;DHT22;61000;48.120;11.548;2023-04-10T06:48:32;3.90;99.90
72865;DHT22;61000;48.120;11.548;2023-04-10T06:50:59;4.00;99.90
72865;DHT22;61000;48.120;11.548;2023-04-10T06:53:26;4.10;99.90
72865;DHT22;61000;48.120;11.548;2023-04-10T06:55:53;4.20;99.90
72865;DHT22;61000;48.120;11.548;2023-04-10T06:58:19;4.40;99.90
72865;DHT22;61000;48.120;11.548;2023-04-10T07:00:48;4.50;99.90
72865;DHT22;61000;48.120;11.548;2023-04-10T07:03:15;4.60;99.90
72865;DHT22;61000;48.120;11.548;2023-04-10T07:08:09;5.00;99.90
72865;DHT22;61000;48.120;11.548;2023-04-10T07:10:36;5.10;99.90
72865;DHT22;61000;48.120;11.548;2023-04-10T07:13:03;5.30;99.90
72865;DHT22;61000;48.120;11.548;2023-04-10T07:15:30;5.50;99.90
72865;DHT22;61000;48.120;11.548;2023-04-10T07:17:58;5.60;99.90
72865;DHT22;61000;48.120;11.548;2023-04-10T07:20:25;5.70;99.90
72865;DHT22;61000;48.120;11.548;2023-04-10T07:22:52;5.90;99.90
72865;DHT22;61000;48.120;11.548;2023-04-10T07:25:19;6.00;99.90
72865;DHT22;61000;48.120;11.548;2023-04-10T07:27:46;6.20;99.90
72865;DHT22;61000;48.120;11.548;2023-04-10T07:30:13;6.40;99.90
72865;DHT22;61000;48.120;11.548;2023-04-10T07:32:40;6.50;99.90
72865;DHT22;61000;48.120;11.548;2023-04-10T07:35:09;6.70;99.90
72865;DHT22;61000;48.120;11.548;2023-04-10T07:37:36;6.80;99.90
72865;DHT22;61000;48.120;11.548;2023-04-10T07:40:05;6.80;99.90
72865;DHT22;61000;48.120;11.548;2023-04-10T07:42:32;6.90;99.90
72865;DHT22;61000;48.120;11.548;2023-04-10T07:44:59;7.00;99.30
72865;DHT22;61000;48.120;11.548;2023-04-10T07:47:26;7.10;99.00
72865;DHT22;61000;48.120;11.548;2023-04-10T07:49:52;7.20;98.50
72865;DHT22;61000;48.120;11.548;2023-04-10T07:52:21;7.40;98.40
72865;DHT22;61000;48.120;11.548;2023-04-10T07:54:48;7.50;98.40
72865;DHT22;61000;48.120;11.548;2023-04-10T07:57:14;7.60;97.80
72865;DHT22;61000;48.120;11.548;2023-04-10T07:59:42;7.70;97.50
72865;DHT22;61000;48.120;11.548;2023-04-10T08:02:08;7.90;97.30
72865;DHT22;61000;48.120;11.548;2023-04-10T08:04:36;8.00;97.00
72865;DHT22;61000;48.120;11.548;2023-04-10T08:07:02;8.10;96.70
72865;DHT22;61000;48.120;11.548;2023-04-10T08:09:31;8.20;96.70
72865;DHT22;61000;48.120;11.548;2023-04-10T08:11:57;8.30;96.50
72865;DHT22;61000;48.120;11.548;2023-04-10T08:14:24;8.50;96.30
72865;DHT22;61000;48.120;11.548;2023-04-10T08:16:51;8.60;96.00
72865;DHT22;61000;48.120;11.548;2023-04-10T08:19:18;8.80;95.70
72865;DHT22;61000;48.120;11.548;2023-04-10T08:21:45;8.90;95.50
72865;DHT22;61000;48.120;11.548;2023-04-10T08:24:12;8.90;95.00
72865;DHT22;61000;48.120;11.548;2023-04-10T08:26:40;9.00;94.90
72865;DHT22;61000;48.120;11.548;2023-04-10T08:29:07;9.10;94.40
72865;DHT22;61000;48.120;11.548;2023-04-10T08:31:34;9.20;94.10
72865;DHT22;61000;48.120;11.548;2023-04-10T08:34:01;9.30;93.80
72865;DHT22;61000;48.120;11.548;2023-04-10T08:36:29;9.20;93.40
72865;DHT22;61000;48.120;11.548;2023-04-10T08:38:56;9.30;93.40
72865;DHT22;61000;48.120;11.548;2023-04-10T08:41:23;9.40;93.20
72865;DHT22;61000;48.120;11.548;2023-04-10T08:43:51;9.40;93.00
72865;DHT22;61000;48.120;11.548;2023-04-10T08:46:18;9.50;92.90
72865;DHT22;61000;48.120;11.548;2023-04-10T08:48:53;9.60;92.70
72865;DHT22;61000;48.120;11.548;2023-04-10T08:51:22;9.70;92.70
72865;DHT22;61000;48.120;11.548;2023-04-10T08:53:51;10.00;93.10
72865;DHT22;61000;48.120;11.548;2023-04-10T08:56:19;9.90;92.60
72865;DHT22;61000;48.120;11.548;2023-04-10T08:58:46;9.90;92.30
72865;DHT22;61000;48.120;11.548;2023-04-10T09:01:19;10.10;91.80
72865;DHT22;61000;48.120;11.548;2023-04-10T09:03:47;10.10;91.20
72865;DHT22;61000;48.120;11.548;2023-04-10T09:06:14;10.20;91.00
72865;DHT22;61000;48.120;11.548;2023-04-10T09:08:41;10.30;90.50
72865;DHT22;61000;48.120;11.548;2023-04-10T09:11:08;10.40;90.40
72865;DHT22;61000;48.120;11.548;2023-04-10T09:13:36;10.50;90.60
72865;DHT22;61000;48.120;11.548;2023-04-10T09:16:04;10.60;90.10
72865;DHT22;61000;48.120;11.548;2023-04-10T09:18:42;10.70;89.70
72865;DHT22;61000;48.120;11.548;2023-04-10T09:21:09;11.00;88.90
72865;DHT22;61000;48.120;11.548;2023-04-10T09:23:37;11.40;88.10
72865;DHT22;61000;48.120;11.548;2023-04-10T09:26:21;11.80;87.20
72865;DHT22;61000;48.120;11.548;2023-04-10T09:31:27;12.80;88.20
72865;DHT22;61000;48.120;11.548;2023-04-10T09:34:07;13.10;82.10
72865;DHT22;61000;48.120;11.548;2023-04-10T09:36:34;14.20;92.20
72865;DHT22;61000;48.120;11.548;2023-04-10T09:39:01;14.70;85.00
72865;DHT22;61000;48.120;11.548;2023-04-10T09:41:28;15.20;73.70
72865;DHT22;61000;48.120;11.548;2023-04-10T09:44:05;15.80;69.20
72865;DHT22;61000;48.120;11.548;2023-04-10T09:46:32;15.90;64.00
72865;DHT22;61000;48.120;11.548;2023-04-10T09:48:59;16.00;63.00
72865;DHT22;61000;48.120;11.548;2023-04-10T09:51:31;16.00;64.40
72865;DHT22;61000;48.120;11.548;2023-04-10T09:54:00;16.10;60.70
72865;DHT22;61000;48.120;11.548;2023-04-10T09:56:28;16.40;58.60
72865;DHT22;61000;48.120;11.548;2023-04-10T09:58:57;15.90;57.50
72865;DHT22;61000;48.120;11.548;2023-04-10T10:01:25;16.20;58.30
72865;DHT22;61000;48.120;11.548;2023-04-10T10:03:54;16.20;57.10
72865;DHT22;61000;48.120;11.548;2023-04-10T10:06:21;16.70;56.20
72865;DHT22;61000;48.120;11.548;2023-04-10T10:08:50;16.50;56.80
72865;DHT22;61000;48.120;11.548;2023-04-10T10:13:49;16.40;54.80
72865;DHT22;61000;48.120;11.548;2023-04-10T10:16:20;16.50;54.30
72865;DHT22;61000;48.120;11.548;2023-04-10T10:18:53;16.10;54.60
72865;DHT22;61000;48.120;11.548;2023-04-10T10:21:21;15.90;54.90
72865;DHT22;61000;48.120;11.548;2023-04-10T10:23:51;16.10;54.80
72865;DHT22;61000;48.120;11.548;2023-04-10T10:26:19;16.10;54.60
72865;DHT22;61000;48.120;11.548;2023-04-10T10:28:50;16.10;54.00
72865;DHT22;61000;48.120;11.548;2023-04-10T10:31:17;15.80;54.10
72865;DHT22;61000;48.120;11.548;2023-04-10T10:33:44;15.50;54.50
72865;DHT22;61000;48.120;11.548;2023-04-10T10:36:13;15.40;55.10
72865;DHT22;61000;48.120;11.548;2023-04-10T10:38:52;15.20;54.80
72865;DHT22;61000;48.120;11.548;2023-04-10T10:41:26;15.20;56.50
72865;DHT22;61000;48.120;11.548;2023-04-10T10:44:00;15.10;56.60
72865;DHT22;61000;48.120;11.548;2023-04-10T10:46:36;15.00;54.10
72865;DHT22;61000;48.120;11.548;2023-04-10T10:49:04;14.80;55.60
72865;DHT22;61000;48.120;11.548;2023-04-10T10:51:45;14.70;55.70
72865;DHT22;61000;48.120;11.548;2023-04-10T10:54:30;14.60;55.70
72865;DHT22;61000;48.120;11.548;2023-04-10T10:56:58;14.60;55.70
72865;DHT22;61000;48.120;11.548;2023-04-10T10:59:53;14.70;54.80
72865;DHT22;61000;48.120;11.548;2023-04-10T11:02:22;14.40;54.80
72865;DHT22;61000;48.120;11.548;2023-04-10T11:04:49;14.20;55.70
72865;DHT22;61000;48.120;11.548;2023-04-10T11:07:16;14.30;55.80
72865;DHT22;61000;48.120;11.548;2023-04-10T11:09:46;14.20;56.10
72865;DHT22;61000;48.120;11.548;2023-04-10T11:12:14;14.30;55.10
72865;DHT22;61000;48.120;11.548;2023-04-10T11:14:42;14.20;54.90
72865;DHT22;61000;48.120;11.548;2023-04-10T11:17:10;14.20;55.70
72865;DHT22;61000;48.120;11.548;2023-04-10T11:20:07;14.20;56.30
72865;DHT22;61000;48.120;11.548;2023-04-10T11:23:06;14.60;58.00
72865;DHT22;61000;48.120;11.548;2023-04-10T11:25:50;14.50;53.10
72865;DHT22;61000;48.120;11.548;2023-04-10T11:28:36;14.30;52.80
72865;DHT22;61000;48.120;11.548;2023-04-10T11:31:14;14.30;53.20
72865;DHT22;61000;48.120;11.548;2023-04-10T11:33:43;14.20;52.00
72865;DHT22;61000;48.120;11.548;2023-04-10T11:36:13;14.10;51.90
72865;DHT22;61000;48.120;11.548;2023-04-10T11:38:53;14.20;52.40
72865;DHT22;61000;48.120;11.548;2023-04-10T11:41:25;14.30;61.60
72865;DHT22;61000;48.120;11.548;2023-04-10T11:43:53;13.70;61.50
72865;DHT22;61000;48.120;11.548;2023-04-10T11:46:20;14.10;60.10
72865;DHT22;61000;48.120;11.548;2023-04-10T11:48:47;14.20;59.10
72865;DHT22;61000;48.120;11.548;2023-04-10T11:51:17;14.40;57.40
72865;DHT22;61000;48.120;11.548;2023-04-10T11:53:44;14.60;56.40
72865;DHT22;61000;48.120;11.548;2023-04-10T11:56:15;14.70;55.30
72865;DHT22;61000;48.120;11.548;2023-04-10T11:58:44;14.60;55.10
72865;DHT22;61000;48.120;11.548;2023-04-10T12:01:11;14.70;55.50
72865;DHT22;61000;48.120;11.548;2023-04-10T12:03:40;14.60;55.50
72865;DHT22;61000;48.120;11.548;2023-04-10T12:06:09;14.80;56.00
72865;DHT22;61000;48.120;11.548;2023-04-10T12:08:38;14.90;55.00
72865;DHT22;61000;48.120;11.548;2023-04-10T12:11:06;15.00;54.80
72865;DHT22;61000;48.120;11.548;2023-04-10T12:13:34;15.00;52.40
72865;DHT22;61000;48.120;11.548;2023-04-10T12:16:05;15.00;52.20
72865;DHT22;61000;48.120;11.548;2023-04-10T12:18:32;15.00;52.40
72865;DHT22;61000;48.120;11.548;2023-04-10T12:21:00;15.20;51.80
72865;DHT22;61000;48.120;11.548;2023-04-10T12:23:28;15.00;50.00
72865;DHT22;61000;48.120;11.548;2023-04-10T12:26:10;15.10;49.30
72865;DHT22;61000;48.120;11.548;2023-04-10T12:28:38;15.00;48.80
72865;DHT22;61000;48.120;11.548;2023-04-10T12:31:07;15.10;49.60
72865;DHT22;61000;48.120;11.548;2023-04-10T12:33:34;15.20;48.80
72865;DHT22;61000;48.120;11.548;2023-04-10T12:36:02;15.20;48.80
72865;DHT22;61000;48.120;11.548;2023-04-10T12:38:40;15.10;50.20
72865;DHT22;61000;48.120;11.548;2023-04-10T12:41:08;15.00;51.30
72865;DHT22;61000;48.120;11.548;2023-04-10T12:43:37;15.30;51.60
72865;DHT22;61000;48.120;11.548;2023-04-10T12:46:08;15.30;51.00
72865;DHT22;61000;48.120;11.548;2023-04-10T12:48:35;15.40;50.00
72865;DHT22;61000;48.120;11.548;2023-04-10T12:51:01;15.30;49.70
72865;DHT22;61000;48.120;11.548;2023-04-10T12:53:29;15.40;50.40
72865;DHT22;61000;48.120;11.548;2023-04-10T12:56:01;15.50;50.00
72865;DHT22;61000;48.120;11.548;2023-04-10T12:58:29;15.70;50.00
72865;DHT22;61000;48.120;11.548;2023-04-10T13:00:57;15.70;49.20
72865;DHT22;61000;48.120;11.548;2023-04-10T13:03:26;15.90;49.30
72865;DHT22;61000;48.120;11.548;2023-04-10T13:05:53;15.70;48.90
72865;DHT22;61000;48.120;11.548;2023-04-10T13:08:20;16.00;50.20
72865;DHT22;61000;48.120;11.548;2023-04-10T13:10:47;16.40;50.70
72865;DHT22;61000;48.120;11.548;2023-04-10T13:13:15;16.50;49.70
72865;DHT22;61000;48.120;11.548;2023-04-10T13:15:43;16.60;49.20
72865;DHT22;61000;48.120;11.548;2023-04-10T13:18:10;16.40;48.30
72865;DHT22;61000;48.120;11.548;2023-04-10T13:20:39;16.20;48.30
72865;DHT22;61000;48.120;11.548;2023-04-10T13:23:07;16.20;49.60
72865;DHT22;61000;48.120;11.548;2023-04-10T13:25:36;16.30;50.10
72865;DHT22;61000;48.120;11.548;2023-04-10T13:28:04;16.50;49.90
72865;DHT22;61000;48.120;11.548;2023-04-10T13:30:35;16.70;48.90
72865;DHT22;61000;48.120;11.548;2023-04-10T13:33:02;16.70;48.20
72865;DHT22;61000;48.120;11.548;2023-04-10T13:35:29;16.50;47.20
72865;DHT22;61000;48.120;11.548;2023-04-10T13:37:58;16.70;47.80
72865;DHT22;61000;48.120;11.548;2023-04-10T13:40:25;16.60;47.60
72865;DHT22;61000;48.120;11.548;2023-04-10T13:42:52;16.70;47.20
72865;DHT22;61000;48.120;11.548;2023-04-10T13:45:19;16.80;47.20
72865;DHT22;61000;48.120;11.548;2023-04-10T13:47:46;16.60;48.00
72865;DHT22;61000;48.120;11.548;2023-04-10T13:50:13;16.70;47.40
72865;DHT22;61000;48.120;11.548;2023-04-10T13:52:40;16.80;47.40
72865;DHT22;61000;48.120;11.548;2023-04-10T13:55:08;16.50;46.60
72865;DHT22;61000;48.120;11.548;2023-04-10T13:57:35;16.30;46.20
72865;DHT22;61000;48.120;11.548;2023-04-10T14:00:03;16.20;46.10
72865;DHT22;61000;48.120;11.548;2023-04-10T14:02:38;16.30;46.80
72865;DHT22;61000;48.120;11.548;2023-04-10T14:05:05;16.30;48.00
72865;DHT22;61000;48.120;11.548;2023-04-10T14:07:32;16.40;48.20
72865;DHT22;61000;48.120;11.548;2023-04-10T14:10:02;16.20;48.00
72865;DHT22;61000;48.120;11.548;2023-04-10T14:12:30;16.00;48.40
72865;DHT22;61000;48.120;11.548;2023-04-10T14:14:58;16.10;49.10
72865;DHT22;61000;48.120;11.548;2023-04-10T14:17:25;16.20;49.10
72865;DHT22;61000;48.120;11.548;2023-04-10T14:19:52;16.30;49.30
72865;DHT22;61000;48.120;11.548;2023-04-10T14:22:19;16.50;48.80
72865;DHT22;61000;48.120;11.548;2023-04-10T14:24:46;16.60;48.50
72865;DHT22;61000;48.120;11.548;2023-04-10T14:27:13;16.50;48.40
72865;DHT22;61000;48.120;11.548;2023-04-10T14:29:42;16.40;48.10
72865;DHT22;61000;48.120;11.548;2023-04-10T14:32:09;16.50;48.30
72865;DHT22;61000;48.120;11.548;2023-04-10T14:34:36;16.30;48.50
72865;DHT22;61000;48.120;11.548;2023-04-10T14:37:03;16.50;47.90
72865;DHT22;61000;48.120;11.548;2023-04-10T14:39:32;16.50;47.00
72865;DHT22;61000;48.120;11.548;2023-04-10T14:41:59;16.30;47.00
72865;DHT22;61000;48.120;11.548;2023-04-10T14:44:28;16.20;47.30
72865;DHT22;61000;48.120;11.548;2023-04-10T14:46:56;16.20;47.70
72865;DHT22;61000;48.120;11.548;2023-04-10T14:49:23;16.10;47.60
72865;DHT22;61000;48.120;11.548;2023-04-10T14:51:50;16.00;46.90
72865;DHT22;61000;48.120;11.548;2023-04-10T14:54:17;16.10;47.00
72865;DHT22;61000;48.120;11.548;2023-04-10T14:56:46;16.10;47.60
72865;DHT22;61000;48.120;11.548;2023-04-10T14:59:13;15.80;48.20
72865;DHT22;61000;48.120;11.548;2023-04-10T15:01:40;15.80;48.90
72865;DHT22;61000;48.120;11.548;2023-04-10T15:04:09;15.70;48.20
72865;DHT22;61000;48.120;11.548;2023-04-10T15:06:36;15.80;48.40
72865;DHT22;61000;48.120;11.548;2023-04-10T15:09:03;16.00;48.40
72865;DHT22;61000;48.120;11.548;2023-04-10T15:11:30;16.00;48.00
72865;DHT22;61000;48.120;11.548;2023-04-10T15:13:57;16.00;47.90
72865;DHT22;61000;48.120;11.548;2023-04-10T15:16:24;16.10;47.30
72865;DHT22;61000;48.120;11.548;2023-04-10T15:18:51;15.90;48.10
72865;DHT22;61000;48.120;11.548;2023-04-10T15:21:19;15.80;48.60
72865;DHT22;61000;48.120;11.548;2023-04-10T15:23:46;15.90;49.30
72865;DHT22;61000;48.120;11.548;2023-04-10T15:26:14;16.00;48.90
72865;DHT22;61000;48.120;11.548;2023-04-10T15:28:41;15.90;48.30
72865;DHT22;61000;48.120;11.548;2023-04-10T15:31:09;15.70;48.40
72865;DHT22;61000;48.120;11.548;2023-04-10T15:33:36;15.60;48.30
72865;DHT22;61000;48.120;11.548;2023-04-10T15:36:05;15.60;48.30
72865;DHT22;61000;48.120;11.548;2023-04-10T15:38:35;15.60;48.60
72865;DHT22;61000;48.120;11.548;2023-04-10T15:41:07;15.40;49.40
72865;DHT22;61000;48.120;11.548;2023-04-10T15:43:35;15.40;49.80
72865;DHT22;61000;48.120;11.548;2023-04-10T15:46:02;15.20;49.90
72865;DHT22;61000;48.120;11.548;2023-04-10T15:48:29;15.30;50.20
72865;DHT22;61000;48.120;11.548;2023-04-10T15:50:56;15.30;50.40
72865;DHT22;61000;48.120;11.548;2023-04-10T15:53:23;15.20;50.80
72865;DHT22;61000;48.120;11.548;2023-04-10T15:55:51;15.20;50.70
72865;DHT22;61000;48.120;11.548;2023-04-10T15:58:18;15.10;50.80
72865;DHT22;61000;48.120;11.548;2023-04-10T16:00:45;15.20;50.90
72865;DHT22;61000;48.120;11.548;2023-04-10T16:03:12;15.20;50.80
72865;DHT22;61000;48.120;11.548;2023-04-10T16:05:38;15.10;50.80
72865;DHT22;61000;48.120;11.548;2023-04-10T16:08:06;15.10;51.30
72865;DHT22;61000;48.120;11.548;2023-04-10T16:10:32;15.00;51.60
72865;DHT22;61000;48.120;11.548;2023-04-10T16:13:01;15.00;51.70
72865;DHT22;61000;48.120;11.548;2023-04-10T16:15:32;14.80;51.90
72865;DHT22;61000;48.120;11.548;2023-04-10T16:17:59;14.90;58.80
72865;DHT22;61000;48.120;11.548;2023-04-10T16:20:26;14.70;56.60
72865;DHT22;61000;48.120;11.548;2023-04-10T16:22:54;14.70;56.20
72865;DHT22;61000;48.120;11.548;2023-04-10T16:25:22;14.60;55.90
72865;DHT22;61000;48.120;11.548;2023-04-10T16:27:49;14.50;56.10
72865;DHT22;61000;48.120;11.548;2023-04-10T16:30:18;14.50;56.80
72865;DHT22;61000;48.120;11.548;2023-04-10T16:32:45;14.40;55.80
72865;DHT22;61000;48.120;11.548;2023-04-10T16:35:12;14.40;56.40
72865;DHT22;61000;48.120;11.548;2023-04-10T16:37:39;14.40;56.90
72865;DHT22;61000;48.120;11.548;2023-04-10T16:40:07;14.30;57.60
72865;DHT22;61000;48.120;11.548;2023-04-10T16:42:34;14.20;57.50
72865;DHT22;61000;48.120;11.548;2023-04-10T16:45:01;14.30;58.00
72865;DHT22;61000;48.120;11.548;2023-04-10T16:47:29;14.30;58.00
72865;DHT22;61000;48.120;11.548;2023-04-10T16:49:56;14.20;58.30